Time;durP1;ratioP1;P1;durP2;ratioP2;P2;SDS_P1;SDS_P2;PMS_P1;PMS_P2;Temp;Humidity;BMP_temperature;BMP_pressure;BME280_temperature;BME280_humidity;BME280_pressure;Samples;Min_cycle;Max_cycle;Signal;HPM_P1;HPM_P2
2023/06/16 00:01:08;;;;;;;21.15;11.38;;;16.60;99.90;;;;;;4955832;28;20035;-74
2023/06/16 00:03:34;;;;;;;19.50;10.45;;;16.60;99.90;;;;;;4947148;28;20031;-75
2023/06/16 00:06:15;;;;;;;16.05;10.63;;;16.50;99.90;;;;;;4938941;29;20032;-75
2023/06/16 00:08:44;;;;;;;19.95;11.55;;;16.50;99.90;;;;;;4941879;29;20039;-75
2023/06/16 00:11:11;;;;;;;16.98;11.30;;;16.40;99.90;;;;;;4955390;28;20110;-75
2023/06/16 00:13:37;;;;;;;20.13;12.00;;;16.50;99.90;;;;;;4942484;29;20019;-75
2023/06/16 00:16:03;;;;;;;20.02;11.75;;;16.40;99.90;;;;;;4968436;28;20522;-75
2023/06/16 00:18:29;;;;;;;19.38;10.93;;;16.40;99.90;;;;;;4942373;28;20396;-74
2023/06/16 00:20:57;;;;;;;18.27;11.45;;;16.40;99.90;;;;;;4955549;28;20118;-74
2023/06/16 00:23:24;;;;;;;17.52;11.10;;;16.40;99.90;;;;;;4953910;29;20138;-76
2023/06/16 00:25:50;;;;;;;17.27;10.13;;;16.40;99.90;;;;;;4954919;28;20023;-75
2023/06/16 00:28:16;;;;;;;17.10;11.38;;;16.40;99.90;;;;;;4953644;28;20034;-75
2023/06/16 00:30:43;;;;;;;14.68;9.88;;;16.40;99.90;;;;;;4937877;29;20027;-76
2023/06/16 00:33:10;;;;;;;16.70;10.98;;;16.40;99.90;;;;;;4954714;28;20043;-75
2023/06/16 00:35:36;;;;;;;23.40;11.32;;;16.40;99.90;;;;;;4955109;28;20499;-75
2023/06/16 00:38:02;;;;;;;18.88;11.68;;;16.40;99.90;;;;;;4954505;28;20031;-76
2023/06/16 00:40:28;;;;;;;17.48;10.98;;;16.40;99.90;;;;;;4954855;28;20047;-76
2023/06/16 00:42:57;;;;;;;19.58;11.20;;;16.30;99.90;;;;;;4953413;28;20118;-75
2023/06/16 00:45:24;;;;;;;19.92;11.82;;;16.30;99.90;;;;;;4954762;28;20035;-74
2023/06/16 00:47:51;;;;;;;18.42;10.88;;;16.30;99.90;;;;;;4953183;28;20035;-75
2023/06/16 00:50:18;;;;;;;17.83;10.90;;;16.30;99.90;;;;;;4936731;28;20063;-76
2023/06/16 00:52:45;;;;;;;17.27;10.63;;;16.30;99.90;;;;;;4937657;29;20087;-75
2023/06/16 00:55:11;;;;;;;18.33;10.38;;;16.30;99.90;;;;;;4954319;28;20030;-75
2023/06/16 00:57:39;;;;;;;18.75;10.80;;;16.30;99.90;;;;;;4955825;28;20027;-76
2023/06/16 01:00:11;;;;;;;15.82;10.50;;;16.30;99.90;;;;;;4954016;28;20167;-75
2023/06/16 01:02:37;;;;;;;15.77;10.98;;;16.30;99.90;;;;;;4954568;28;20028;-76
2023/06/16 01:05:03;;;;;;;19.73;11.32;;;16.30;99.90;;;;;;4937262;28;20074;-76
2023/06/16 01:07:36;;;;;;;17.77;10.60;;;16.30;99.90;;;;;;4953873;28;20039;-76
2023/06/16 01:10:13;;;;;;;15.32;11.02;;;16.30;99.90;;;;;;4937095;29;20067;-76
2023/06/16 01:12:45;;;;;;;17.10;10.18;;;16.30;99.90;;;;;;4952604;28;20066;-77
2023/06/16 01:15:15;;;;;;;19.80;12.05;;;16.30;99.90;;;;;;4952006;29;20097;-76
2023/06/16 01:17:45;;;;;;;19.77;10.82;;;16.20;99.90;;;;;;4952854;29;20042;-75
2023/06/16 01:20:24;;;;;;;17.42;11.07;;;16.20;99.90;;;;;;4954069;28;20561;-77
2023/06/16 01:23:17;;;;;;;19.02;11.07;;;16.20;99.90;;;;;;4954275;28;20039;-78
2023/06/16 01:25:45;;;;;;;16.73;11.07;;;16.20;99.90;;;;;;4954094;28;20031;-77
2023/06/16 01:28:19;;;;;;;19.45;11.13;;;16.20;99.90;;;;;;4952893;28;20107;-76
2023/06/16 01:30:50;;;;;;;15.65;10.15;;;16.20;99.90;;;;;;4936946;28;20082;-76
2023/06/16 01:33:19;;;;;;;15.73;10.45;;;16.30;99.90;;;;;;4954304;28;20054;-76
2023/06/16 01:35:46;;;;;;;17.55;11.73;;;16.30;99.90;;;;;;4953755;28;20023;-76
2023/06/16 01:38:13;;;;;;;16.55;10.35;;;16.30;99.90;;;;;;4953989;28;20031;-76
2023/06/16 01:40:41;;;;;;;17.70;10.60;;;16.20;99.90;;;;;;4953575;28;20046;-76
2023/06/16 01:43:08;;;;;;;16.55;10.50;;;16.30;99.90;;;;;;4954181;28;20015;-77
2023/06/16 01:45:34;;;;;;;16.17;10.80;;;16.30;99.90;;;;;;4953568;28;20039;-76
2023/06/16 01:48:01;;;;;;;18.27;10.32;;;16.30;99.90;;;;;;4936718;29;20031;-77
2023/06/16 01:50:27;;;;;;;17.15;10.68;;;16.30;99.90;;;;;;4953541;28;20110;-75
2023/06/16 01:52:53;;;;;;;18.33;9.98;;;16.30;99.90;;;;;;4936655;29;20175;-77
2023/06/16 01:55:19;;;;;;;20.27;10.00;;;16.30;99.90;;;;;;4953626;28;20019;-77
2023/06/16 01:57:45;;;;;;;14.82;9.93;;;16.20;99.90;;;;;;4953753;28;20031;-75
2023/06/16 02:00:21;;;;;;;15.93;10.32;;;16.20;99.90;;;;;;4953675;28;20047;-76
2023/06/16 02:02:53;;;;;;;14.73;10.18;;;16.20;99.90;;;;;;4952591;29;20067;-76
2023/06/16 02:05:24;;;;;;;18.08;11.40;;;16.20;99.90;;;;;;4936475;29;20019;-77
2023/06/16 02:07:53;;;;;;;17.88;10.43;;;16.20;99.90;;;;;;4953393;28;20051;-76
2023/06/16 02:10:21;;;;;;;16.70;10.57;;;16.20;99.90;;;;;;4953479;28;20043;-77
2023/06/16 02:12:48;;;;;;;15.00;9.75;;;16.10;99.90;;;;;;4953957;28;20364;-77
2023/06/16 02:15:20;;;;;;;17.73;10.43;;;16.20;99.90;;;;;;4953181;29;20020;-76
2023/06/16 02:17:50;;;;;;;17.08;10.68;;;16.20;99.90;;;;;;4936433;29;20118;-76
2023/06/16 02:20:15;;;;;;;17.02;10.40;;;16.20;99.90;;;;;;4953500;28;20035;-77
2023/06/16 02:22:43;;;;;;;17.73;10.65;;;16.20;99.90;;;;;;4951990;28;20038;-77
2023/06/16 02:25:09;;;;;;;15.32;9.88;;;16.20;99.90;;;;;;4952963;28;20465;-75
2023/06/16 02:27:35;;;;;;;19.38;10.23;;;16.20;99.90;;;;;;4939893;28;20023;-76
2023/06/16 02:30:01;;;;;;;16.10;10.25;;;16.20;99.90;;;;;;4939846;29;20039;-75
2023/06/16 02:32:27;;;;;;;16.15;9.88;;;16.20;99.90;;;;;;4957169;28;20043;-76
2023/06/16 02:34:56;;;;;;;23.42;11.18;;;16.20;99.90;;;;;;4957564;28;20020;-76
2023/06/16 02:37:25;;;;;;;17.00;10.80;;;16.20;99.90;;;;;;4955300;28;20034;-77
2023/06/16 02:39:51;;;;;;;19.00;10.32;;;16.10;99.90;;;;;;4956813;28;20039;-76
2023/06/16 02:42:17;;;;;;;15.65;10.25;;;16.20;99.90;;;;;;4939964;29;20114;-76
2023/06/16 02:44:43;;;;;;;15.35;9.13;;;16.20;99.90;;;;;;4935061;29;20117;-76
2023/06/16 02:47:08;;;;;;;17.27;10.10;;;16.20;99.90;;;;;;4939832;29;20039;-76
2023/06/16 02:49:35;;;;;;;17.58;9.25;;;16.20;99.90;;;;;;4955700;28;20126;-76
2023/06/16 02:52:01;;;;;;;15.55;8.57;;;16.20;99.90;;;;;;4957006;28;20106;-76
2023/06/16 02:54:28;;;;;;;16.92;9.63;;;16.20;99.90;;;;;;4942344;28;20039;-75
2023/06/16 02:56:56;;;;;;;16.20;9.30;;;16.20;99.90;;;;;;4955763;28;20027;-75
2023/06/16 02:59:33;;;;;;;16.90;8.82;;;16.20;99.90;;;;;;4939218;29;20060;-77
2023/06/16 03:01:58;;;;;;;12.68;8.45;;;16.10;99.90;;;;;;4939499;29;20487;-76
2023/06/16 03:04:30;;;;;;;12.77;8.47;;;16.10;99.90;;;;;;4955269;28;20026;-76
2023/06/16 03:07:05;;;;;;;15.43;8.38;;;16.00;99.90;;;;;;4956319;28;20102;-75
2023/06/16 03:09:40;;;;;;;14.27;8.85;;;16.00;99.90;;;;;;4939385;29;20071;-76
2023/06/16 03:12:08;;;;;;;17.20;9.10;;;16.00;99.90;;;;;;4939147;28;20033;-76
2023/06/16 03:14:39;;;;;;;18.77;9.27;;;15.90;99.90;;;;;;4939379;29;20031;-76
2023/06/16 03:17:23;;;;;;;19.85;9.23;;;15.90;99.90;;;;;;4939319;28;20073;-76
2023/06/16 03:19:49;;;;;;;13.27;8.60;;;15.90;99.90;;;;;;4956365;28;20042;-75
2023/06/16 03:22:20;;;;;;;14.43;9.35;;;15.90;99.90;;;;;;4954955;28;20039;-76
2023/06/16 03:24:46;;;;;;;17.60;9.45;;;15.90;99.90;;;;;;4955143;28;20507;-76
2023/06/16 03:27:16;;;;;;;15.38;10.02;;;15.90;99.90;;;;;;4939163;29;20031;-76
2023/06/16 03:29:53;;;;;;;20.00;10.98;;;15.90;99.90;;;;;;4938814;28;20115;-76
2023/06/16 03:32:19;;;;;;;15.18;9.60;;;15.90;99.90;;;;;;4956095;28;20099;-75
2023/06/16 03:34:46;;;;;;;17.95;10.45;;;15.90;99.90;;;;;;4938834;28;20030;-76
2023/06/16 03:37:12;;;;;;;15.85;9.30;;;15.90;99.90;;;;;;4937553;29;20038;-76
2023/06/16 03:39:39;;;;;;;15.30;9.32;;;15.90;99.90;;;;;;4938589;29;20043;-76
2023/06/16 03:42:06;;;;;;;15.10;9.95;;;15.80;99.90;;;;;;4938750;29;20495;-76
2023/06/16 03:44:32;;;;;;;15.50;10.38;;;15.80;99.90;;;;;;4956022;28;20038;-76
2023/06/16 03:46:58;;;;;;;15.68;9.90;;;15.80;99.90;;;;;;4954555;29;20460;-76
2023/06/16 03:49:24;;;;;;;17.17;9.85;;;15.80;99.90;;;;;;4955756;28;20027;-76
2023/06/16 03:51:50;;;;;;;15.57;9.98;;;15.90;99.90;;;;;;4938549;28;20031;-75
2023/06/16 03:54:17;;;;;;;15.75;10.30;;;15.90;99.90;;;;;;4938612;29;20122;-76
2023/06/16 03:56:43;;;;;;;16.65;10.18;;;16.00;99.90;;;;;;4954686;28;20027;-77
2023/06/16 03:59:09;;;;;;;17.95;8.82;;;16.10;99.90;;;;;;4955363;28;20039;-75
2023/06/16 04:01:38;;;;;;;16.02;10.18;;;15.60;99.90;;;;;;4955620;28;20379;-77
2023/06/16 04:04:06;;;;;;;15.27;9.63;;;15.90;99.90;;;;;;4938223;29;20037;-76
2023/06/16 04:06:34;;;;;;;13.68;9.27;;;15.90;99.90;;;;;;4954444;28;20471;-75
2023/06/16 04:09:02;;;;;;;16.00;9.80;;;15.90;99.90;;;;;;4954022;29;20051;-76
2023/06/16 04:11:31;;;;;;;15.73;9.80;;;15.90;99.90;;;;;;4938107;29;20035;-77
2023/06/16 04:13:57;;;;;;;15.18;9.48;;;15.90;99.90;;;;;;4938224;29;20019;-76
2023/06/16 04:16:23;;;;;;;23.13;9.75;;;15.90;99.90;;;;;;4952251;28;20069;-76
2023/06/16 04:18:50;;;;;;;15.65;9.15;;;16.00;99.90;;;;;;4935106;28;20039;-76
2023/06/16 04:21:16;;;;;;;16.23;9.50;;;16.00;99.90;;;;;;4937898;29;20024;-76
2023/06/16 04:23:42;;;;;;;14.85;9.32;;;16.00;99.90;;;;;;4953943;29;20078;-77
2023/06/16 04:26:10;;;;;;;18.83;9.85;;;16.10;99.90;;;;;;4937940;29;20027;-76
2023/06/16 04:28:43;;;;;;;16.60;9.32;;;16.00;99.90;;;;;;4953478;28;20399;-76
2023/06/16 04:31:12;;;;;;;19.13;9.82;;;16.60;99.90;;;;;;4937716;29;20046;-76
2023/06/16 04:33:42;;;;;;;13.15;9.07;;;16.10;99.90;;;;;;4937807;29;20023;-77
2023/06/16 04:36:09;;;;;;;14.55;9.52;;;16.20;99.90;;;;;;4938065;29;20175;-77
2023/06/16 04:38:36;;;;;;;15.48;9.68;;;16.20;99.90;;;;;;4954502;28;20055;-77
2023/06/16 04:41:03;;;;;;;13.02;8.55;;;16.30;99.90;;;;;;4955057;28;20117;-76
2023/06/16 04:43:29;;;;;;;12.55;8.43;;;16.30;99.90;;;;;;4937782;29;20030;-77
2023/06/16 04:45:55;;;;;;;14.70;8.80;;;16.30;99.90;;;;;;4937625;29;20034;-77
2023/06/16 04:48:21;;;;;;;13.30;8.55;;;16.30;99.90;;;;;;4937271;29;20094;-77
2023/06/16 04:50:47;;;;;;;15.23;8.98;;;16.30;99.90;;;;;;4937373;29;20114;-77
2023/06/16 04:53:13;;;;;;;15.60;9.10;;;16.40;99.90;;;;;;4937440;29;20030;-77
2023/06/16 04:55:39;;;;;;;15.73;8.77;;;16.50;99.90;;;;;;4954288;28;20027;-77
2023/06/16 04:58:05;;;;;;;20.63;9.45;;;16.40;99.90;;;;;;4953852;28;20027;-77
2023/06/16 05:00:31;;;;;;;15.35;9.00;;;16.50;99.90;;;;;;4953084;29;20042;-76
2023/06/16 05:02:57;;;;;;;14.07;8.88;;;16.50;99.90;;;;;;4937292;29;20032;-76
2023/06/16 05:05:23;;;;;;;16.73;8.82;;;16.50;99.90;;;;;;4953791;28;20430;-76
2023/06/16 05:07:49;;;;;;;17.98;9.38;;;16.50;99.90;;;;;;4952830;28;20407;-76
2023/06/16 05:10:15;;;;;;;13.30;8.63;;;16.50;99.90;;;;;;4936108;29;20407;-76
2023/06/16 05:12:41;;;;;;;14.95;8.70;;;16.40;99.90;;;;;;4943557;28;20037;-76
2023/06/16 05:15:09;;;;;;;13.55;7.65;;;16.40;99.90;;;;;;4936607;29;20034;-76
2023/06/16 05:17:36;;;;;;;13.60;8.00;;;16.40;99.90;;;;;;4952404;29;20038;-76
2023/06/16 05:20:03;;;;;;;13.32;8.23;;;16.40;99.90;;;;;;4936764;29;20035;-76
2023/06/16 05:22:30;;;;;;;12.45;8.27;;;16.60;99.90;;;;;;4939124;28;20102;-76
2023/06/16 05:24:57;;;;;;;13.52;9.05;;;16.70;99.90;;;;;;4950874;28;20027;-77
2023/06/16 05:27:24;;;;;;;17.92;8.95;;;16.40;99.90;;;;;;4936637;28;20027;-78
2023/06/16 05:29:51;;;;;;;16.55;9.30;;;16.50;99.90;;;;;;4953099;28;20035;-77
2023/06/16 05:32:19;;;;;;;15.82;8.57;;;16.50;99.90;;;;;;4941967;28;20502;-77
2023/06/16 05:34:48;;;;;;;15.13;8.45;;;16.50;99.90;;;;;;4936938;29;20141;-77
2023/06/16 05:37:15;;;;;;;15.70;8.45;;;16.60;99.90;;;;;;4933478;29;20078;-77
2023/06/16 05:39:45;;;;;;;14.38;8.60;;;16.70;99.90;;;;;;4934226;29;20053;-77
2023/06/16 05:42:13;;;;;;;18.15;8.68;;;16.80;99.90;;;;;;4935363;28;20391;-76
2023/06/16 05:44:40;;;;;;;12.10;7.75;;;16.80;99.90;;;;;;4931732;29;20367;-78
2023/06/16 05:47:06;;;;;;;11.93;8.00;;;16.80;99.90;;;;;;4931743;29;20077;-77
2023/06/16 05:49:32;;;;;;;13.52;7.85;;;16.70;99.90;;;;;;4932524;29;20402;-76
2023/06/16 05:51:59;;;;;;;12.10;7.32;;;16.80;99.90;;;;;;4940557;29;20034;-76
2023/06/16 05:54:25;;;;;;;13.88;8.52;;;16.90;99.90;;;;;;4931386;29;20054;-77
2023/06/16 05:56:51;;;;;;;14.43;7.22;;;16.90;99.90;;;;;;4926631;29;20023;-76
2023/06/16 05:59:17;;;;;;;15.73;8.77;;;16.80;99.90;;;;;;4935857;29;20042;-77
2023/06/16 06:01:44;;;;;;;13.10;7.60;;;16.80;99.90;;;;;;4939938;29;20506;-77
2023/06/16 06:04:12;;;;;;;11.23;7.45;;;16.90;99.90;;;;;;4940760;29;20039;-77
2023/06/16 06:06:38;;;;;;;12.05;8.05;;;16.80;99.90;;;;;;4940302;28;20110;-77
2023/06/16 06:09:04;;;;;;;11.32;7.22;;;16.80;99.90;;;;;;4940384;29;20083;-76
2023/06/16 06:11:31;;;;;;;12.40;7.88;;;16.80;99.90;;;;;;4957607;28;20503;-77
2023/06/16 06:13:57;;;;;;;11.95;7.55;;;16.80;99.90;;;;;;4940684;28;20498;-77
2023/06/16 06:16:23;;;;;;;12.43;7.65;;;16.60;99.90;;;;;;4957212;28;20027;-77
2023/06/16 06:18:50;;;;;;;15.23;7.72;;;16.80;99.90;;;;;;4939959;29;20428;-77
2023/06/16 06:21:16;;;;;;;13.55;8.45;;;16.80;99.90;;;;;;4957225;28;20038;-77
2023/06/16 06:23:42;;;;;;;13.07;8.10;;;16.80;99.90;;;;;;4956066;28;20027;-77
2023/06/16 06:26:08;;;;;;;11.77;7.20;;;16.80;99.90;;;;;;4957378;28;20046;-77
2023/06/16 06:28:34;;;;;;;13.32;7.78;;;16.90;99.90;;;;;;4939911;29;20387;-77
2023/06/16 06:31:01;;;;;;;15.20;8.60;;;16.90;99.90;;;;;;4955765;28;20401;-77
2023/06/16 06:33:27;;;;;;;10.77;7.25;;;16.90;99.90;;;;;;4939985;29;20031;-77
2023/06/16 06:35:53;;;;;;;10.30;7.13;;;17.00;99.90;;;;;;4940147;29;20101;-77
2023/06/16 06:38:19;;;;;;;13.13;8.15;;;17.10;99.90;;;;;;4956857;28;20062;-77
2023/06/16 06:40:47;;;;;;;11.52;7.38;;;17.00;99.90;;;;;;4957267;28;20523;-77
2023/06/16 06:43:13;;;;;;;10.38;7.15;;;17.20;99.90;;;;;;4939593;28;20035;-77
2023/06/16 06:45:48;;;;;;;12.10;7.10;;;17.20;99.90;;;;;;4947407;29;20055;-77
2023/06/16 06:48:14;;;;;;;10.23;6.25;;;17.20;99.90;;;;;;4957166;28;20030;-76
2023/06/16 06:50:41;;;;;;;12.60;7.78;;;17.20;99.90;;;;;;4939652;29;20031;-77
2023/06/16 06:53:07;;;;;;;11.90;7.10;;;17.20;99.90;;;;;;4939875;29;20043;-77
2023/06/16 06:55:33;;;;;;;11.52;7.68;;;17.20;99.90;;;;;;4956914;28;20047;-77
2023/06/16 06:57:59;;;;;;;10.50;7.78;;;17.20;99.90;;;;;;4956531;28;20039;-76
2023/06/16 07:00:25;;;;;;;10.93;7.47;;;17.20;99.90;;;;;;4956637;28;20038;-76
2023/06/16 07:02:50;;;;;;;11.90;7.75;;;17.20;99.90;;;;;;4956974;28;20062;-76
2023/06/16 07:05:16;;;;;;;12.55;7.03;;;17.20;99.90;;;;;;4956743;28;20106;-76
2023/06/16 07:07:42;;;;;;;11.82;6.68;;;17.30;99.90;;;;;;4956654;28;20039;-76
2023/06/16 07:10:10;;;;;;;12.07;7.45;;;17.30;99.90;;;;;;4955095;28;20131;-77
2023/06/16 07:12:36;;;;;;;9.80;6.38;;;17.30;99.90;;;;;;4955912;28;20106;-75
2023/06/16 07:15:02;;;;;;;11.32;7.40;;;17.30;99.90;;;;;;4956678;28;20031;-77
2023/06/16 07:17:30;;;;;;;11.65;7.47;;;17.40;99.90;;;;;;4956316;28;20102;-76
2023/06/16 07:19:56;;;;;;;13.52;7.70;;;17.40;99.90;;;;;;4956589;28;20487;-76
2023/06/16 07:22:22;;;;;;;14.40;8.23;;;17.50;99.90;;;;;;4955987;28;20078;-76
2023/06/16 07:24:47;;;;;;;12.00;7.38;;;17.60;99.90;;;;;;4956402;28;20023;-76
2023/06/16 07:27:13;;;;;;;10.75;7.30;;;17.50;99.90;;;;;;4955965;28;20031;-75
2023/06/16 07:29:40;;;;;;;12.63;7.57;;;17.60;99.90;;;;;;4956225;28;20066;-75
2023/06/16 07:32:06;;;;;;;13.57;7.50;;;17.70;99.90;;;;;;4955900;28;20034;-76
2023/06/16 07:34:32;;;;;;;10.77;7.00;;;17.60;99.90;;;;;;4956346;28;20082;-75
2023/06/16 07:36:58;;;;;;;12.18;7.30;;;17.70;99.90;;;;;;4955829;28;20019;-76
2023/06/16 07:39:24;;;;;;;11.95;6.38;;;17.80;99.90;;;;;;4955962;28;20491;-76
2023/06/16 07:41:50;;;;;;;11.05;7.25;;;17.70;99.90;;;;;;4955919;28;20075;-75
2023/06/16 07:44:16;;;;;;;9.48;6.25;;;17.80;99.90;;;;;;4955673;28;20027;-76
2023/06/16 07:46:45;;;;;;;10.90;7.07;;;18.00;99.90;;;;;;4955932;28;20065;-76
2023/06/16 07:49:13;;;;;;;10.80;7.13;;;18.00;99.90;;;;;;4955748;28;20090;-76
2023/06/16 07:51:39;;;;;;;10.68;6.32;;;18.10;99.90;;;;;;4956052;28;20035;-76
2023/06/16 07:54:06;;;;;;;10.35;6.53;;;18.10;99.90;;;;;;4955472;28;20027;-77
2023/06/16 07:56:32;;;;;;;10.90;6.38;;;18.10;99.90;;;;;;4956274;28;20034;-75
2023/06/16 07:58:58;;;;;;;12.75;7.65;;;17.90;99.90;;;;;;4955476;28;20031;-77
2023/06/16 08:01:23;;;;;;;8.77;5.80;;;18.10;99.90;;;;;;4955454;28;20110;-76
2023/06/16 08:03:49;;;;;;;8.52;5.93;;;18.20;99.90;;;;;;4955705;28;20023;-76
2023/06/16 08:06:15;;;;;;;11.50;6.88;;;18.20;99.90;;;;;;4955400;28;20023;-77
2023/06/16 08:08:41;;;;;;;12.20;6.57;;;18.20;99.90;;;;;;4955363;28;20041;-76
2023/06/16 08:11:07;;;;;;;11.02;6.97;;;18.30;99.90;;;;;;4955357;28;20051;-76
2023/06/16 08:13:33;;;;;;;12.82;7.18;;;18.50;99.90;;;;;;4955538;28;20140;-76
2023/06/16 08:15:59;;;;;;;10.45;6.00;;;18.60;99.90;;;;;;4954863;28;20028;-76
2023/06/16 08:18:25;;;;;;;8.45;5.53;;;18.50;99.90;;;;;;4955474;28;20034;-76
2023/06/16 08:20:52;;;;;;;12.85;7.25;;;18.50;99.90;;;;;;4955034;28;20483;-76
2023/06/16 08:23:17;;;;;;;10.00;6.10;;;18.50;99.90;;;;;;4954477;28;20027;-75
2023/06/16 08:25:43;;;;;;;8.10;5.35;;;18.50;99.90;;;;;;4955064;28;20086;-76
2023/06/16 08:28:09;;;;;;;9.93;5.75;;;18.60;99.90;;;;;;4942173;28;20034;-75
2023/06/16 08:30:36;;;;;;;12.80;6.32;;;18.60;99.90;;;;;;4955326;28;20027;-75
2023/06/16 08:33:02;;;;;;;12.23;6.45;;;18.80;99.90;;;;;;4954770;29;20034;-75
2023/06/16 08:35:28;;;;;;;11.90;5.55;;;18.80;99.90;;;;;;4955489;28;20023;-75
2023/06/16 08:37:55;;;;;;;9.55;5.82;;;18.80;99.90;;;;;;4954719;28;20030;-76
2023/06/16 08:40:20;;;;;;;13.10;5.68;;;18.80;99.90;;;;;;4954989;29;20047;-76
2023/06/16 08:42:47;;;;;;;10.40;5.72;;;18.90;99.90;;;;;;4941948;28;20398;-76
2023/06/16 08:45:13;;;;;;;12.05;6.03;;;18.90;99.90;;;;;;4954942;28;20511;-76
2023/06/16 08:47:42;;;;;;;11.35;5.93;;;18.90;99.90;;;;;;4954361;28;20102;-76
2023/06/16 08:50:09;;;;;;;11.38;5.25;;;18.80;99.90;;;;;;4955297;28;20114;-76
2023/06/16 08:52:38;;;;;;;10.80;6.30;;;18.90;99.90;;;;;;4954870;28;20023;-76
2023/06/16 08:55:08;;;;;;;10.20;6.18;;;19.00;99.90;;;;;;4954622;28;20082;-77
2023/06/16 08:57:38;;;;;;;11.82;6.68;;;18.90;99.90;;;;;;4954771;28;20027;-76
2023/06/16 09:00:08;;;;;;;11.30;5.30;;;19.00;99.90;;;;;;4954162;29;20106;-76
2023/06/16 09:02:36;;;;;;;12.73;7.25;;;19.00;99.90;;;;;;4954692;28;20051;-75
2023/06/16 09:05:03;;;;;;;10.35;6.20;;;19.00;99.90;;;;;;4954247;28;20038;-78
2023/06/16 09:07:30;;;;;;;8.82;5.25;;;19.00;99.90;;;;;;4954084;28;20031;-76
2023/06/16 09:09:55;;;;;;;9.73;5.47;;;18.90;99.90;;;;;;4954369;28;20031;-76
2023/06/16 09:12:22;;;;;;;10.38;5.50;;;18.90;99.90;;;;;;4954127;28;20510;-74
2023/06/16 09:14:51;;;;;;;12.48;5.97;;;18.90;99.90;;;;;;4954456;28;20020;-76
2023/06/16 09:17:29;;;;;;;9.30;5.40;;;18.90;99.90;;;;;;4954125;28;20118;-77
2023/06/16 09:19:56;;;;;;;9.32;6.05;;;18.90;99.90;;;;;;4954210;28;20483;-77
2023/06/16 09:22:26;;;;;;;10.18;5.75;;;18.80;99.90;;;;;;4953927;28;20027;-76
2023/06/16 09:24:56;;;;;;;8.48;5.97;;;18.80;99.90;;;;;;4953976;28;20456;-76
2023/06/16 09:27:26;;;;;;;10.18;6.15;;;18.80;99.90;;;;;;4954368;28;20498;-76
2023/06/16 09:30:00;;;;;;;9.52;5.60;;;18.80;99.90;;;;;;4953943;28;20042;-77
2023/06/16 09:32:35;;;;;;;8.57;5.57;;;18.70;99.90;;;;;;4954011;28;20034;-76
2023/06/16 09:35:20;;;;;;;11.02;6.00;;;18.80;99.90;;;;;;4953910;28;20035;-75
2023/06/16 09:37:48;;;;;;;9.85;6.25;;;18.70;99.90;;;;;;4953796;28;20031;-76
2023/06/16 09:40:15;;;;;;;11.60;6.60;;;18.70;99.90;;;;;;4954149;28;20126;-75
2023/06/16 09:42:43;;;;;;;14.05;5.80;;;18.80;99.90;;;;;;4953905;28;20027;-76
2023/06/16 09:45:16;;;;;;;9.82;6.10;;;18.90;99.90;;;;;;4953981;28;20028;-76
2023/06/16 09:47:47;;;;;;;10.70;6.57;;;19.00;99.90;;;;;;4953893;28;20051;-76
2023/06/16 09:50:18;;;;;;;10.85;6.13;;;19.00;99.90;;;;;;4953455;28;20054;-76
2023/06/16 09:52:48;;;;;;;10.25;5.63;;;19.10;99.90;;;;;;4954103;28;20154;-76
2023/06/16 09:55:14;;;;;;;11.13;6.55;;;19.10;99.90;;;;;;4953847;28;20106;-77
2023/06/16 09:57:44;;;;;;;10.05;5.68;;;19.00;99.90;;;;;;4954124;28;20055;-77
2023/06/16 10:00:21;;;;;;;11.40;6.03;;;19.00;99.90;;;;;;4936239;28;20063;-76
2023/06/16 10:02:48;;;;;;;10.60;5.53;;;19.00;99.90;;;;;;4953728;28;20051;-76
2023/06/16 10:05:18;;;;;;;13.10;6.55;;;19.00;99.90;;;;;;4953662;28;20383;-76
2023/06/16 10:07:49;;;;;;;10.45;5.72;;;19.00;99.90;;;;;;4953496;28;20051;-76
2023/06/16 10:10:19;;;;;;;10.70;6.00;;;18.90;99.90;;;;;;4953354;29;20099;-75
2023/06/16 10:12:48;;;;;;;10.18;6.07;;;19.00;99.90;;;;;;4953694;28;20383;-77
2023/06/16 10:15:21;;;;;;;12.40;6.07;;;18.90;99.90;;;;;;4953402;28;20035;-76
2023/06/16 10:17:49;;;;;;;9.38;5.70;;;19.10;99.90;;;;;;4953876;28;20332;-76
2023/06/16 10:20:18;;;;;;;10.98;5.88;;;19.10;99.90;;;;;;4953558;28;20039;-76
2023/06/16 10:22:45;;;;;;;9.85;5.20;;;19.20;99.90;;;;;;4953694;28;20035;-77
2023/06/16 10:25:11;;;;;;;8.75;5.65;;;19.20;99.90;;;;;;4953903;28;20027;-76
2023/06/16 10:27:40;;;;;;;9.73;4.97;;;19.30;99.90;;;;;;4953742;28;20023;-75
2023/06/16 10:30:16;;;;;;;11.68;6.18;;;19.30;99.90;;;;;;4953621;28;20475;-76
2023/06/16 10:32:52;;;;;;;11.20;5.70;;;19.40;99.90;;;;;;4953310;28;20027;-76
2023/06/16 10:35:20;;;;;;;8.00;5.00;;;19.40;99.90;;;;;;4953761;28;20038;-76
2023/06/16 10:37:53;;;;;;;7.82;5.10;;;19.40;99.90;;;;;;4953468;28;20038;-77
2023/06/16 10:40:21;;;;;;;8.82;4.95;;;19.50;99.90;;;;;;4953746;29;20066;-76
2023/06/16 10:42:48;;;;;;;8.88;4.63;;;19.60;99.90;;;;;;4953349;28;20019;-76
2023/06/16 10:45:28;;;;;;;8.57;5.07;;;19.60;99.90;;;;;;4953516;28;20391;-76
2023/06/16 10:48:03;;;;;;;9.07;5.55;;;19.80;99.90;;;;;;4955859;29;20027;-77
2023/06/16 10:50:38;;;;;;;9.18;5.43;;;19.80;99.90;;;;;;4957166;28;20027;-76
2023/06/16 10:53:11;;;;;;;11.68;5.63;;;20.00;99.90;;;;;;4945211;28;20383;-76
2023/06/16 10:55:41;;;;;;;10.18;5.38;;;20.00;99.90;;;;;;4956999;28;20439;-76
2023/06/16 10:58:19;;;;;;;9.07;5.43;;;20.20;99.90;;;;;;4956685;28;20109;-77
2023/06/16 11:00:57;;;;;;;11.35;4.93;;;20.10;99.90;;;;;;4956866;28;20373;-76
2023/06/16 11:03:27;;;;;;;10.77;4.70;;;20.40;99.90;;;;;;4956845;28;20031;-76
2023/06/16 11:05:59;;;;;;;10.02;4.75;;;20.40;99.90;;;;;;4956322;28;20027;-76
2023/06/16 11:08:25;;;;;;;9.10;4.67;;;20.60;99.90;;;;;;4955941;28;20043;-76
2023/06/16 11:10:58;;;;;;;9.85;4.40;;;20.70;99.90;;;;;;4938250;29;20063;-75
2023/06/16 11:13:30;;;;;;;9.65;5.07;;;20.90;99.90;;;;;;4955287;28;20494;-76
2023/06/16 11:15:57;;;;;;;8.05;3.83;;;20.90;99.90;;;;;;4955453;28;20387;-78
2023/06/16 11:18:26;;;;;;;9.02;5.22;;;20.90;99.90;;;;;;4954963;28;20360;-76
2023/06/16 11:21:00;;;;;;;7.03;4.00;;;20.80;99.90;;;;;;4955528;28;20046;-77
2023/06/16 11:23:26;;;;;;;9.07;4.60;;;20.70;99.90;;;;;;4955156;28;20502;-77
2023/06/16 11:26:01;;;;;;;6.97;4.10;;;20.80;99.90;;;;;;4955337;28;20057;-77
2023/06/16 11:28:27;;;;;;;8.32;4.28;;;20.80;99.90;;;;;;4954960;28;20027;-77
2023/06/16 11:30:53;;;;;;;10.57;4.55;;;21.00;99.90;;;;;;4955003;29;20031;-78
2023/06/16 11:33:21;;;;;;;10.68;5.28;;;20.90;99.90;;;;;;4955055;28;20015;-78
2023/06/16 11:35:47;;;;;;;9.35;3.92;;;21.00;99.90;;;;;;4955066;28;20474;-77
2023/06/16 11:38:27;;;;;;;8.43;4.40;;;21.10;99.90;;;;;;4955167;28;20023;-77
2023/06/16 11:40:54;;;;;;;8.93;5.15;;;21.30;99.90;;;;;;4954870;28;20081;-77
2023/06/16 11:43:23;;;;;;;9.95;4.45;;;21.40;99.90;;;;;;4955193;29;20086;-77
2023/06/16 11:45:50;;;;;;;10.68;4.45;;;21.40;99.90;;;;;;4954823;28;20105;-77
2023/06/16 11:48:16;;;;;;;7.20;4.35;;;21.40;99.90;;;;;;4954888;28;20015;-77
2023/06/16 11:50:43;;;;;;;8.38;4.40;;;21.50;99.90;;;;;;4955129;28;20023;-77
2023/06/16 11:53:13;;;;;;;9.52;4.80;;;21.30;99.90;;;;;;4954795;28;20055;-77
2023/06/16 11:55:39;;;;;;;6.63;4.53;;;21.30;99.90;;;;;;4954637;28;20030;-76
2023/06/16 11:58:05;;;;;;;7.03;4.70;;;21.20;99.90;;;;;;4953637;28;20031;-77
2023/06/16 12:00:31;;;;;;;6.68;4.65;;;20.90;99.90;;;;;;4954404;28;20035;-77
2023/06/16 12:02:57;;;;;;;11.75;4.50;;;20.90;99.90;;;;;;4954485;29;20374;-77
2023/06/16 12:05:28;;;;;;;7.47;4.57;;;20.80;99.90;;;;;;4954650;28;20538;-76
2023/06/16 12:07:54;;;;;;;9.97;4.50;;;20.80;99.90;;;;;;4916582;28;1126865;-76
2023/06/16 12:10:23;;;;;;;8.93;5.28;;;20.80;99.90;;;;;;4955425;28;20118;-76
2023/06/16 12:12:49;;;;;;;6.18;4.22;;;20.50;99.90;;;;;;4955595;29;20038;-76
2023/06/16 12:15:23;;;;;;;7.15;4.97;;;20.40;99.90;;;;;;4955292;28;20024;-75
2023/06/16 12:17:50;;;;;;;7.63;4.78;;;20.20;99.90;;;;;;4955286;28;20139;-75
2023/06/16 12:20:18;;;;;;;9.48;5.38;;;20.20;99.90;;;;;;4955303;28;20435;-77
2023/06/16 12:22:44;;;;;;;9.00;5.43;;;20.20;99.90;;;;;;4955413;28;20109;-76
2023/06/16 12:25:13;;;;;;;7.75;5.07;;;20.40;99.90;;;;;;4955290;29;20031;-76
2023/06/16 12:27:49;;;;;;;7.75;5.57;;;20.50;99.90;;;;;;4954738;28;20035;-76
2023/06/16 12:30:15;;;;;;;7.68;5.32;;;20.60;99.90;;;;;;4955249;28;20479;-76
2023/06/16 12:32:42;;;;;;;7.15;5.10;;;20.60;99.90;;;;;;4955030;28;20149;-76
2023/06/16 12:35:09;;;;;;;7.40;5.20;;;20.80;99.90;;;;;;4955336;28;20038;-78
2023/06/16 12:37:35;;;;;;;10.93;6.35;;;20.60;99.90;;;;;;4954911;28;20015;-76
2023/06/16 12:40:04;;;;;;;8.57;5.90;;;20.60;99.90;;;;;;4955083;28;20062;-75